TimeHST,TemperatureF,Dew PointF,Humidity,Sea Level PressureIn,VisibilityMPH,Wind Direction,Wind SpeedMPH,Gust SpeedMPH,PrecipitationIn,Events,Conditions,WindDirDegrees,DateUTC
12:54 AM,75.0,68.0,79,30.10,10.0,NE,15.0,-,N/A,,Partly Cloudy,50,2012-09-10 10:54:00
1:54 AM,75.0,64.0,69,30.08,10.0,ENE,6.9,-,N/A,,Clear,70,2012-09-10 11:54:00
2:54 AM,73.9,64.9,73,30.07,10.0,ENE,10.4,-,N/A,,Clear,60,2012-09-10 12:54:00
3:54 AM,73.0,64.9,76,30.07,10.0,East,4.6,-,N/A,,Clear,100,2012-09-10 13:54:00
4:54 AM,73.9,64.0,71,30.08,-9999.0,ESE,3.5,-,N/A,,Unknown,120,2012-09-10 14:54:00
5:54 AM,73.9,66.0,76,30.09,10.0,ENE,15.0,20.7,N/A,,Scattered Clouds,60,2012-09-10 15:54:00
6:54 AM,75.0,68.0,79,30.10,10.0,NE,18.4,-,N/A,,Scattered Clouds,40,2012-09-10 16:54:00
7:54 AM,78.1,68.0,71,30.12,10.0,NE,17.3,25.3,N/A,,Scattered Clouds,50,2012-09-10 17:54:00
8:54 AM,80.1,68.0,67,30.12,10.0,ENE,12.7,-,N/A,,Partly Cloudy,60,2012-09-10 18:54:00
9:54 AM,82.9,64.9,54,30.10,10.0,ENE,16.1,25.3,N/A,,Partly Cloudy,60,2012-09-10 19:54:00
10:54 AM,84.0,66.0,55,30.09,10.0,ENE,19.6,32.2,N/A,,Partly Cloudy,60,2012-09-10 20:54:00
11:54 AM,84.0,66.9,56,30.07,10.0,ENE,21.9,34.5,N/A,,Partly Cloudy,60,2012-09-10 21:54:00
12:54 PM,84.9,66.0,53,30.06,10.0,ENE,24.2,33.4,N/A,,Partly Cloudy,60,2012-09-10 22:54:00
1:54 PM,86.0,63.0,46,30.03,10.0,NE,25.3,34.5,N/A,,Partly Cloudy,50,2012-09-10 23:54:00
2:54 PM,82.9,66.0,56,30.02,10.0,ENE,24.2,36.8,N/A,,Partly Cloudy,70,2012-09-11 00:54:00
3:54 PM,80.1,64.0,58,30.01,10.0,ENE,24.2,32.2,N/A,,Scattered Clouds,60,2012-09-11 01:54:00
4:54 PM,79.0,64.0,60,30.02,10.0,ENE,17.3,23.0,N/A,,Mostly Cloudy,60,2012-09-11 02:54:00
5:54 PM,77.0,66.9,71,30.04,10.0,NE,20.7,-,N/A,,Scattered Clouds,40,2012-09-11 03:54:00
6:54 PM,75.0,66.0,73,30.05,10.0,ENE,17.3,-,N/A,,Scattered Clouds,60,2012-09-11 04:54:00
7:54 PM,75.0,66.9,76,30.06,10.0,NE,12.7,-,N/A,,Scattered Clouds,50,2012-09-11 05:54:00
8:54 PM,73.9,66.0,76,30.08,10.0,ENE,19.6,24.2,N/A,,Mostly Cloudy,70,2012-09-11 06:54:00
9:54 PM,73.9,64.0,71,30.09,10.0,NE,13.8,-,N/A,,Scattered Clouds,50,2012-09-11 07:54:00
10:54 PM,73.9,64.0,71,30.08,10.0,NE,12.7,-,N/A,,Partly Cloudy,50,2012-09-11 08:54:00
11:54 PM,73.9,66.0,76,30.07,10.0,NE,6.9,-,N/A,,Mostly Cloudy,50,2012-09-11 09:54:00